Time;durP1;ratioP1;P1;durP2;ratioP2;P2;SDS_P1;SDS_P2;PMS_P1;PMS_P2;Temp;Humidity;BMP_temperature;BMP_pressure;BME280_temperature;BME280_humidity;BME280_pressure;Samples;Min_cycle;Max_cycle;Signal;HPM_P1;HPM_P2
2022/03/11 00:01:03;;;;;;;;;;;22.20;49.80;;;;;;4998250;28;991;-46
2022/03/11 00:03:31;;;;;;;;;;;22.20;49.80;;;;;;4997682;28;996;-47
2022/03/11 00:05:58;;;;;;;;;;;22.20;49.80;;;;;;4997313;28;1004;-46
2022/03/11 00:08:25;;;;;;;;;;;22.10;49.70;;;;;;4997716;28;1007;-49
2022/03/11 00:10:52;;;;;;;;;;;22.20;49.80;;;;;;4997640;28;996;-47
2022/03/11 00:13:18;;;;;;;;;;;22.10;49.80;;;;;;4997041;28;979;-46
2022/03/11 00:15:45;;;;;;;;;;;22.10;49.80;;;;;;4996656;28;975;-46
2022/03/11 00:18:13;;;;;;;;;;;22.10;49.80;;;;;;4997180;28;1972;-47
2022/03/11 00:20:41;;;;;;;;;;;22.10;49.80;;;;;;4996256;28;1016;-46
2022/03/11 00:23:08;;;;;;;;;;;22.10;49.90;;;;;;4996987;28;1012;-46
2022/03/11 00:25:35;;;;;;;;;;;22.10;49.90;;;;;;4996804;28;939;-46
2022/03/11 00:28:01;;;;;;;;;;;22.10;49.90;;;;;;4996991;28;1360;-47
2022/03/11 00:30:28;;;;;;;;;;;22.10;49.80;;;;;;4997631;28;972;-46
2022/03/11 00:32:55;;;;;;;;;;;22.10;49.70;;;;;;4997317;28;996;-46
2022/03/11 00:35:22;;;;;;;;;;;22.10;49.70;;;;;;4997283;28;940;-47
2022/03/11 00:37:50;;;;;;;;;;;22.10;49.60;;;;;;4997015;28;1898;-47
2022/03/11 00:40:17;;;;;;;;;;;22.20;49.60;;;;;;4997167;28;1014;-47
2022/03/11 00:42:44;;;;;;;;;;;22.20;49.40;;;;;;4996781;28;928;-48
2022/03/11 00:45:10;;;;;;;;;;;22.20;49.40;;;;;;4997264;28;959;-46
2022/03/11 00:47:37;;;;;;;;;;;22.20;49.40;;;;;;4996626;28;980;-47
2022/03/11 00:50:04;;;;;;;;;;;22.20;49.40;;;;;;4997005;28;1134;-46
2022/03/11 00:52:31;;;;;;;;;;;22.20;49.40;;;;;;4996321;28;1000;-46
2022/03/11 00:54:59;;;;;;;;;;;22.20;49.40;;;;;;4995772;28;1339;-46
2022/03/11 00:57:26;;;;;;;;;;;22.10;49.50;;;;;;4996330;28;1277;-46
2022/03/11 00:59:53;;;;;;;;;;;22.10;49.40;;;;;;4996085;28;1902;-47
2022/03/11 01:02:19;;;;;;;;;;;22.10;49.40;;;;;;4995669;28;984;-45
2022/03/11 01:04:47;;;;;;;;;;;22.10;49.30;;;;;;4996741;28;1007;-46
2022/03/11 01:07:14;;;;;;;;;;;22.10;49.40;;;;;;4996457;28;968;-47
2022/03/11 01:09:40;;;;;;;;;;;22.10;49.30;;;;;;4996297;28;980;-46
2022/03/11 01:12:09;;;;;;;;;;;22.10;49.30;;;;;;4997433;28;1024;-46
2022/03/11 01:14:36;;;;;;;;;;;22.10;49.40;;;;;;4997001;28;1024;-46
2022/03/11 01:17:02;;;;;;;;;;;22.00;49.30;;;;;;4995979;28;1044;-47
2022/03/11 01:19:29;;;;;;;;;;;22.10;49.50;;;;;;4996417;28;1902;-46
2022/03/11 01:21:57;;;;;;;;;;;22.10;49.30;;;;;;4996412;28;1031;-46
2022/03/11 01:24:23;;;;;;;;;;;22.00;49.40;;;;;;4996123;28;1081;-47
2022/03/11 01:26:50;;;;;;;;;;;22.00;49.30;;;;;;4995932;28;1008;-47
2022/03/11 01:29:18;;;;;;;;;;;22.00;49.40;;;;;;4993982;28;943;-46
2022/03/11 01:31:45;;;;;;;;;;;22.00;49.30;;;;;;4995544;28;988;-46
2022/03/11 01:34:12;;;;;;;;;;;22.00;49.30;;;;;;4995833;28;1151;-46
2022/03/11 01:36:39;;;;;;;;;;;22.00;49.40;;;;;;4995015;28;941;-46
2022/03/11 01:39:06;;;;;;;;;;;22.00;49.40;;;;;;4995429;28;1906;-46
2022/03/11 01:41:33;;;;;;;;;;;22.00;49.40;;;;;;4995070;28;961;-46
2022/03/11 01:44:00;;;;;;;;;;;21.90;49.30;;;;;;4994945;28;974;-46
2022/03/11 01:46:29;;;;;;;;;;;22.00;49.40;;;;;;4994606;28;1004;-46
2022/03/11 01:49:05;;;;;;;;;;;21.90;49.50;;;;;;5114603;27;1192;-45
2022/03/11 01:51:33;;;;;;;;;;;21.90;49.40;;;;;;5114238;28;1004;-46
2022/03/11 01:53:59;;;;;;;;;;;21.90;49.40;;;;;;5114396;28;1040;-45
2022/03/11 01:56:27;;;;;;;;;;;22.00;49.40;;;;;;5114002;28;904;-45
2022/03/11 01:58:54;;;;;;;;;;;21.90;49.40;;;;;;5114672;28;977;-46
2022/03/11 02:01:22;;;;;;;;;;;21.90;49.40;;;;;;5115061;28;1002;-47
2022/03/11 02:03:49;;;;;;;;;;;21.90;49.40;;;;;;5115526;28;1136;-47
2022/03/11 02:06:17;;;;;;;;;;;21.90;49.40;;;;;;5115442;28;1050;-47
2022/03/11 02:08:44;;;;;;;;;;;21.90;49.40;;;;;;5115156;28;1972;-48
2022/03/11 02:11:12;;;;;;;;;;;21.90;49.40;;;;;;5115100;28;1027;-48
2022/03/11 02:13:42;;;;;;;;;;;21.90;49.40;;;;;;5115927;28;1605;-46
2022/03/11 02:16:08;;;;;;;;;;;21.90;49.30;;;;;;5116060;28;989;-46
2022/03/11 02:18:35;;;;;;;;;;;21.90;49.40;;;;;;5115836;28;980;-47
2022/03/11 02:21:02;;;;;;;;;;;21.90;49.40;;;;;;5116103;28;1005;-47
2022/03/11 02:23:31;;;;;;;;;;;21.90;49.40;;;;;;5115921;28;940;-46
2022/03/11 02:26:00;;;;;;;;;;;21.90;49.30;;;;;;5116077;28;983;-46
2022/03/11 02:28:32;;;;;;;;;;;21.90;49.40;;;;;;5115666;28;1910;-47
2022/03/11 02:30:58;;;;;;;;;;;21.90;49.20;;;;;;5115751;28;909;-47
2022/03/11 02:33:25;;;;;;;;;;;21.80;49.30;;;;;;5115256;28;980;-46
2022/03/11 02:35:52;;;;;;;;;;;21.80;49.30;;;;;;5115503;28;983;-46
2022/03/11 02:38:19;;;;;;;;;;;21.80;49.30;;;;;;5115938;28;980;-46
2022/03/11 02:40:46;;;;;;;;;;;21.80;49.30;;;;;;5114833;28;959;-47
2022/03/11 02:43:14;;;;;;;;;;;21.80;49.30;;;;;;5114824;28;953;-47
2022/03/11 02:45:41;;;;;;;;;;;21.80;49.30;;;;;;5114966;28;1014;-47
2022/03/11 02:48:08;;;;;;;;;;;21.80;49.40;;;;;;5114872;28;1898;-47
2022/03/11 02:50:35;;;;;;;;;;;21.80;49.30;;;;;;5115158;28;956;-46
2022/03/11 02:53:01;;;;;;;;;;;21.80;49.30;;;;;;5115502;28;1004;-47
2022/03/11 02:55:28;;;;;;;;;;;21.80;49.40;;;;;;5114812;28;948;-46
2022/03/11 02:57:55;;;;;;;;;;;21.80;49.40;;;;;;5115478;28;960;-47
2022/03/11 03:00:23;;;;;;;;;;;21.80;49.40;;;;;;5101373;28;995;-46
2022/03/11 03:02:50;;;;;;;;;;;21.70;49.50;;;;;;5101260;28;1009;-46
2022/03/11 03:05:17;;;;;;;;;;;21.70;49.30;;;;;;5100427;28;960;-47
2022/03/11 03:07:44;;;;;;;;;;;21.70;49.40;;;;;;5101232;28;1913;-46
2022/03/11 03:10:11;;;;;;;;;;;21.70;49.50;;;;;;5100951;28;994;-46
2022/03/11 03:12:38;;;;;;;;;;;21.70;49.40;;;;;;5100869;28;972;-46
2022/03/11 03:15:05;;;;;;;;;;;21.70;49.20;;;;;;5101154;28;983;-48
2022/03/11 03:18:03;;;;;;;;;;;21.70;49.40;;;;;;5101485;28;992;-46
2022/03/11 03:20:31;;;;;;;;;;;21.70;49.40;;;;;;5101330;28;968;-46
2022/03/11 03:22:58;;;;;;;;;;;21.70;49.40;;;;;;5100897;28;976;-48
2022/03/11 03:25:24;;;;;;;;;;;21.70;49.30;;;;;;5100847;28;1011;-46
2022/03/11 03:27:52;;;;;;;;;;;21.70;49.40;;;;;;5101057;28;1902;-46
2022/03/11 03:30:19;;;;;;;;;;;21.70;49.40;;;;;;5100703;28;944;-46
2022/03/11 03:32:45;;;;;;;;;;;21.70;49.30;;;;;;5100334;28;924;-46
2022/03/11 03:35:12;;;;;;;;;;;21.70;49.20;;;;;;5100721;28;993;-46
2022/03/11 03:37:41;;;;;;;;;;;21.70;49.40;;;;;;5100568;28;1390;-46
2022/03/11 03:40:08;;;;;;;;;;;21.70;49.20;;;;;;5100569;28;995;-46
2022/03/11 03:42:35;;;;;;;;;;;21.70;49.20;;;;;;5100190;28;1098;-46
2022/03/11 03:45:02;;;;;;;;;;;21.70;49.20;;;;;;5100399;28;964;-47
2022/03/11 03:47:28;;;;;;;;;;;21.70;49.20;;;;;;5099584;28;1922;-46
2022/03/11 03:49:55;;;;;;;;;;;21.70;49.20;;;;;;5100702;28;1015;-46
2022/03/11 03:52:22;;;;;;;;;;;21.70;49.10;;;;;;5100474;28;996;-49
2022/03/11 03:54:50;;;;;;;;;;;21.70;49.30;;;;;;5100412;28;928;-46
2022/03/11 03:57:16;;;;;;;;;;;21.70;49.40;;;;;;5100300;28;996;-46
2022/03/11 03:59:43;;;;;;;;;;;21.70;49.30;;;;;;5100382;28;948;-46
2022/03/11 04:02:10;;;;;;;;;;;21.70;49.30;;;;;;5099966;28;986;-46
2022/03/11 04:04:37;;;;;;;;;;;21.60;49.30;;;;;;5100563;28;961;-46
2022/03/11 04:07:04;;;;;;;;;;;21.70;49.30;;;;;;5100011;28;1067;-46
2022/03/11 04:09:31;;;;;;;;;;;21.70;49.30;;;;;;5099832;28;1902;-46
2022/03/11 04:11:59;;;;;;;;;;;21.60;49.40;;;;;;5098818;28;924;-47
2022/03/11 04:14:27;;;;;;;;;;;21.60;49.30;;;;;;5099929;28;1018;-46
2022/03/11 04:16:55;;;;;;;;;;;21.70;49.50;;;;;;5099923;28;1043;-47
2022/03/11 04:19:21;;;;;;;;;;;21.60;49.40;;;;;;5099716;28;994;-49
2022/03/11 04:21:48;;;;;;;;;;;21.60;49.40;;;;;;5099714;28;1044;-46
2022/03/11 04:24:15;;;;;;;;;;;21.60;49.40;;;;;;5098781;28;1031;-46
2022/03/11 04:26:43;;;;;;;;;;;21.60;49.40;;;;;;5098862;28;989;-47
2022/03/11 04:29:11;;;;;;;;;;;21.60;49.40;;;;;;5098459;28;1991;-47
2022/03/11 04:31:38;;;;;;;;;;;21.60;49.40;;;;;;5098138;28;1015;-46
2022/03/11 04:34:05;;;;;;;;;;;21.60;49.40;;;;;;5098753;28;1011;-46
2022/03/11 04:36:38;;;;;;;;;;;21.60;49.40;;;;;;5098204;28;976;-47
2022/03/11 04:39:05;;;;;;;;;;;21.60;49.40;;;;;;5098364;28;978;-46
2022/03/11 04:41:32;;;;;;;;;;;21.60;49.30;;;;;;5098190;28;999;-47
2022/03/11 04:43:59;;;;;;;;;;;21.60;49.20;;;;;;5099157;28;1762;-46
2022/03/11 04:46:27;;;;;;;;;;;21.50;49.30;;;;;;5097606;28;1015;-41
2022/03/11 04:48:54;;;;;;;;;;;21.60;49.40;;;;;;5099012;28;1878;-41
2022/03/11 04:51:22;;;;;;;;;;;21.50;49.30;;;;;;5098257;28;1008;-40
2022/03/11 04:53:49;;;;;;;;;;;21.50;49.30;;;;;;5097993;28;981;-40
2022/03/11 04:56:16;;;;;;;;;;;21.50;49.20;;;;;;5098966;28;1007;-41
2022/03/11 04:58:42;;;;;;;;;;;21.50;49.20;;;;;;5098496;28;989;-40
2022/03/11 05:01:09;;;;;;;;;;;21.50;49.30;;;;;;5098804;28;1026;-41
2022/03/11 05:03:37;;;;;;;;;;;21.50;49.30;;;;;;5097814;28;1026;-41
2022/03/11 05:06:05;;;;;;;;;;;21.50;49.20;;;;;;5098807;28;1023;-41
2022/03/11 05:08:31;;;;;;;;;;;21.60;49.30;;;;;;5098250;28;1897;-45
2022/03/11 05:10:58;;;;;;;;;;;21.50;49.30;;;;;;5098612;28;988;-41
2022/03/11 05:13:25;;;;;;;;;;;21.60;49.20;;;;;;5097883;28;940;-40
2022/03/11 05:15:52;;;;;;;;;;;21.60;49.20;;;;;;5098734;28;1771;-44
2022/03/11 05:18:20;;;;;;;;;;;21.60;49.10;;;;;;5098394;28;996;-41
2022/03/11 05:20:48;;;;;;;;;;;21.50;49.10;;;;;;5097838;28;1127;-41
2022/03/11 05:23:15;;;;;;;;;;;21.50;49.10;;;;;;5097635;28;1019;-41
2022/03/11 05:25:42;;;;;;;;;;;21.50;49.10;;;;;;5097792;28;1004;-41
2022/03/11 05:28:09;;;;;;;;;;;21.50;49.20;;;;;;5096863;28;1910;-42
2022/03/11 05:30:36;;;;;;;;;;;21.50;49.20;;;;;;5096616;28;991;-40
2022/03/11 05:33:03;;;;;;;;;;;21.60;49.20;;;;;;5096282;28;1855;-40
2022/03/11 05:35:30;;;;;;;;;;;21.50;49.10;;;;;;5096409;28;1286;-41
2022/03/11 05:37:59;;;;;;;;;;;21.60;49.20;;;;;;5096794;28;940;-41
2022/03/11 05:40:26;;;;;;;;;;;21.60;49.10;;;;;;5096573;28;1013;-41
2022/03/11 05:42:53;;;;;;;;;;;21.60;49.20;;;;;;5096508;28;925;-40
2022/03/11 05:45:20;;;;;;;;;;;21.60;49.10;;;;;;5096693;28;1020;-42
2022/03/11 05:47:46;;;;;;;;;;;21.60;49.20;;;;;;5096651;28;1035;-41
2022/03/11 05:50:14;;;;;;;;;;;21.60;49.10;;;;;;5095708;28;1976;-41
2022/03/11 05:52:41;;;;;;;;;;;21.50;49.10;;;;;;5095541;28;968;-41
2022/03/11 05:55:10;;;;;;;;;;;21.50;49.20;;;;;;5096245;28;964;-41
2022/03/11 05:57:37;;;;;;;;;;;21.50;49.20;;;;;;5095601;28;1010;-41
2022/03/11 06:00:05;;;;;;;;;;;21.50;49.20;;;;;;5096026;28;924;-40
2022/03/11 06:02:31;;;;;;;;;;;21.50;49.20;;;;;;5095903;28;935;-41
2022/03/11 06:04:58;;;;;;;;;;;21.50;49.10;;;;;;5096781;28;1014;-40
2022/03/11 06:07:25;;;;;;;;;;;21.50;49.30;;;;;;5095741;28;987;-41
2022/03/11 06:09:52;;;;;;;;;;;21.50;49.40;;;;;;5096791;28;1985;-41
2022/03/11 06:12:22;;;;;;;;;;;21.50;49.20;;;;;;5095217;28;951;-41
2022/03/11 06:14:48;;;;;;;;;;;21.50;49.20;;;;;;5095265;28;983;-40
2022/03/11 06:17:15;;;;;;;;;;;21.50;49.30;;;;;;5096089;28;941;-41
2022/03/11 06:19:42;;;;;;;;;;;21.50;49.20;;;;;;5092873;28;1020;-40
2022/03/11 06:22:09;;;;;;;;;;;21.50;49.20;;;;;;5093054;28;928;-41
2022/03/11 06:24:35;;;;;;;;;;;21.50;50.40;;;;;;5095665;28;944;-45
2022/03/11 06:27:02;;;;;;;;;;;21.50;49.20;;;;;;5092744;28;1023;-41
2022/03/11 06:29:30;;;;;;;;;;;21.50;49.40;;;;;;5093944;28;1918;-41
2022/03/11 06:31:57;;;;;;;;;;;21.50;49.30;;;;;;5095471;28;1066;-41
2022/03/11 06:34:24;;;;;;;;;;;21.50;50.30;;;;;;5096736;28;1019;-41
2022/03/11 06:36:51;;;;;;;;;;;21.50;49.30;;;;;;5098778;28;1050;-41
2022/03/11 06:39:18;;;;;;;;;;;21.40;49.20;;;;;;5099362;28;1027;-40
2022/03/11 06:41:44;;;;;;;;;;;21.50;49.20;;;;;;5099013;28;952;-40
2022/03/11 06:44:11;;;;;;;;;;;21.50;49.20;;;;;;5099576;28;959;-40
2022/03/11 06:46:39;;;;;;;;;;;21.50;49.20;;;;;;5099574;28;1025;-44
2022/03/11 06:49:06;;;;;;;;;;;21.50;49.20;;;;;;5096702;28;1913;-39
2022/03/11 06:51:33;;;;;;;;;;;21.60;49.30;;;;;;5098825;28;941;-41
2022/03/11 06:54:00;;;;;;;;;;;21.60;49.30;;;;;;5099099;28;988;-41
2022/03/11 06:56:27;;;;;;;;;;;21.60;49.70;;;;;;5098909;28;948;-42
2022/03/11 06:58:53;;;;;;;;;;;21.60;49.50;;;;;;5099545;28;1000;-38
2022/03/11 07:01:20;;;;;;;;;;;21.70;49.60;;;;;;5099162;28;928;-39
2022/03/11 07:03:48;;;;;;;;;;;21.70;49.40;;;;;;5098856;28;940;-38
2022/03/11 07:06:15;;;;;;;;;;;21.70;49.50;;;;;;5098828;28;1023;-39
2022/03/11 07:08:42;;;;;;;;;;;21.60;49.60;;;;;;5098568;28;1980;-38
2022/03/11 07:11:09;;;;;;;;;;;21.60;49.60;;;;;;5098832;28;973;-38
2022/03/11 07:13:35;;;;;;;;;;;21.70;49.50;;;;;;5097710;28;993;-38
2022/03/11 07:16:02;;;;;;;;;;;21.70;49.60;;;;;;5097612;28;940;-38
2022/03/11 07:18:29;;;;;;;;;;;21.70;49.70;;;;;;5097424;28;837;-38
2022/03/11 07:21:00;;;;;;;;;;;21.60;49.60;;;;;;5094512;28;1028;-38
2022/03/11 07:23:27;;;;;;;;;;;21.70;49.50;;;;;;5096178;28;984;-38
2022/03/11 07:25:54;;;;;;;;;;;21.70;49.60;;;;;;5097631;28;1075;-38
2022/03/11 07:28:20;;;;;;;;;;;21.70;49.50;;;;;;5098785;28;932;-38
2022/03/11 07:30:47;;;;;;;;;;;21.70;49.50;;;;;;5099000;28;1021;-38
2022/03/11 07:33:14;;;;;;;;;;;21.70;49.60;;;;;;5097443;28;988;-38
2022/03/11 07:35:41;;;;;;;;;;;21.60;49.50;;;;;;5096850;28;1033;-39
2022/03/11 07:38:09;;;;;;;;;;;21.60;49.40;;;;;;5095670;28;1011;-38
2022/03/11 07:40:36;;;;;;;;;;;21.60;49.50;;;;;;5095642;28;1773;-38
2022/03/11 07:43:03;;;;;;;;;;;21.70;49.60;;;;;;5095891;28;1081;-38
2022/03/11 07:45:30;;;;;;;;;;;21.60;49.40;;;;;;5094979;28;1007;-39
2022/03/11 07:47:57;;;;;;;;;;;21.70;49.50;;;;;;5095256;28;1158;-38
2022/03/11 07:50:24;;;;;;;;;;;21.70;49.50;;;;;;5095805;28;1909;-39
2022/03/11 07:52:51;;;;;;;;;;;21.60;49.40;;;;;;5091777;28;1024;-39
2022/03/11 07:55:21;;;;;;;;;;;21.70;49.50;;;;;;5077384;28;996;-39
2022/03/11 07:57:48;;;;;;;;;;;21.70;49.40;;;;;;5077538;28;1007;-38
2022/03/11 08:00:16;;;;;;;;;;;21.70;49.40;;;;;;5078259;28;1073;-40
2022/03/11 08:02:42;;;;;;;;;;;21.60;50.50;;;;;;5077909;28;920;-39
2022/03/11 08:05:14;;;;;;;;;;;21.60;49.40;;;;;;5076546;28;1029;-39
2022/03/11 08:07:44;;;;;;;;;;;21.60;49.40;;;;;;5076900;28;945;-40
2022/03/11 08:10:11;;;;;;;;;;;21.70;49.30;;;;;;5077079;28;1905;-38
2022/03/11 08:12:39;;;;;;;;;;;21.70;49.30;;;;;;5077784;28;929;-38
2022/03/11 08:15:07;;;;;;;;;;;21.70;49.40;;;;;;5075819;28;1008;-42
2022/03/11 08:17:33;;;;;;;;;;;21.60;49.40;;;;;;5075515;28;988;-40
2022/03/11 08:20:00;;;;;;;;;;;21.60;49.40;;;;;;5076639;28;1766;-39
2022/03/11 08:22:27;;;;;;;;;;;21.60;49.40;;;;;;5076503;28;1031;-40
2022/03/11 08:24:54;;;;;;;;;;;21.60;49.30;;;;;;5077541;28;1011;-38
2022/03/11 08:27:21;;;;;;;;;;;21.60;49.40;;;;;;5076602;28;985;-38
2022/03/11 08:29:49;;;;;;;;;;;21.70;49.20;;;;;;5076177;28;1901;-38
2022/03/11 08:32:16;;;;;;;;;;;21.60;49.40;;;;;;5076476;28;944;-39
2022/03/11 08:34:43;;;;;;;;;;;21.70;49.40;;;;;;5077734;28;980;-38
2022/03/11 08:37:10;;;;;;;;;;;21.60;49.20;;;;;;5076521;28;1024;-39
2022/03/11 08:39:36;;;;;;;;;;;21.70;49.40;;;;;;5075835;28;1393;-38
2022/03/11 08:42:03;;;;;;;;;;;21.70;49.30;;;;;;5077163;28;984;-38
2022/03/11 08:44:30;;;;;;;;;;;21.70;49.30;;;;;;5073827;28;1051;-39
2022/03/11 08:46:58;;;;;;;;;;;21.70;49.30;;;;;;5075714;28;1329;-39
2022/03/11 08:49:25;;;;;;;;;;;21.70;49.20;;;;;;5077102;28;1976;-40
2022/03/11 08:51:52;;;;;;;;;;;21.70;49.30;;;;;;5076499;28;1161;-41
2022/03/11 08:54:20;;;;;;;;;;;21.60;49.30;;;;;;5075711;28;956;-40
2022/03/11 08:56:46;;;;;;;;;;;21.70;49.30;;;;;;5075928;28;974;-40
2022/03/11 08:59:14;;;;;;;;;;;21.60;49.30;;;;;;5076366;28;2060;-41
2022/03/11 09:01:40;;;;;;;;;;;21.60;49.30;;;;;;5077219;28;961;-38
2022/03/11 09:04:08;;;;;;;;;;;21.70;49.40;;;;;;5076579;28;1012;-39
2022/03/11 09:06:35;;;;;;;;;;;21.70;49.40;;;;;;5076495;28;1012;-38
2022/03/11 09:09:02;;;;;;;;;;;21.70;49.40;;;;;;5076920;28;1913;-39
2022/03/11 09:11:29;;;;;;;;;;;21.70;49.40;;;;;;5077749;28;944;-38
2022/03/11 09:13:56;;;;;;;;;;;21.60;49.30;;;;;;5075868;28;929;-40
2022/03/11 09:16:22;;;;;;;;;;;21.60;49.30;;;;;;5076340;28;993;-39
2022/03/11 09:18:49;;;;;;;;;;;21.60;49.40;;;;;;5076128;28;987;-39
2022/03/11 09:21:17;;;;;;;;;;;21.60;49.40;;;;;;5075852;28;940;-38
2022/03/11 09:23:44;;;;;;;;;;;21.60;49.30;;;;;;5075966;28;1075;-38
2022/03/11 09:26:11;;;;;;;;;;;21.60;49.20;;;;;;5075761;28;940;-39
2022/03/11 09:28:38;;;;;;;;;;;21.70;49.30;;;;;;5075879;28;1007;-38
2022/03/11 09:31:08;;;;;;;;;;;21.60;49.30;;;;;;5074567;28;1901;-38
2022/03/11 09:33:35;;;;;;;;;;;21.60;49.10;;;;;;5075701;28;1040;-38
2022/03/11 09:36:01;;;;;;;;;;;21.60;49.30;;;;;;5075849;28;988;-38
2022/03/11 09:38:30;;;;;;;;;;;21.70;49.40;;;;;;5076309;28;885;-39
2022/03/11 09:40:57;;;;;;;;;;;21.70;49.40;;;;;;5075410;28;1033;-38
2022/03/11 09:43:24;;;;;;;;;;;21.70;49.30;;;;;;5074491;28;1107;-39
2022/03/11 09:45:51;;;;;;;;;;;21.60;49.20;;;;;;5074659;28;1008;-39
2022/03/11 09:48:19;;;;;;;;;;;21.60;49.20;;;;;;5074445;28;1737;-39
2022/03/11 09:50:45;;;;;;;;;;;21.60;49.20;;;;;;5075301;28;2267;-38
2022/03/11 09:53:12;;;;;;;;;;;21.60;49.30;;;;;;5073745;28;1020;-39
2022/03/11 09:55:41;;;;;;;;;;;21.60;49.30;;;;;;5075270;28;1003;-38
2022/03/11 09:58:08;;;;;;;;;;;21.60;49.30;;;;;;5074300;28;1085;-39
2022/03/11 10:00:34;;;;;;;;;;;21.60;49.30;;;;;;5075130;28;932;-38
2022/03/11 10:03:01;;;;;;;;;;;21.60;49.30;;;;;;5074644;28;1034;-38
2022/03/11 10:05:43;;;;;;;;;;;21.60;49.30;;;;;;5076542;28;941;-40
2022/03/11 10:08:10;;;;;;;;;;;21.60;49.40;;;;;;5075387;28;972;-38
2022/03/11 10:10:36;;;;;;;;;;;21.60;49.40;;;;;;5078574;28;1905;-38
2022/03/11 10:13:06;;;;;;;;;;;21.60;49.30;;;;;;5078544;28;1457;-39
2022/03/11 10:15:33;;;;;;;;;;;21.60;49.40;;;;;;5079416;28;1047;-39
2022/03/11 10:18:02;;;;;;;;;;;21.60;49.40;;;;;;5077364;28;991;-38
2022/03/11 10:20:30;;;;;;;;;;;21.70;49.40;;;;;;5079912;28;978;-38
2022/03/11 10:22:57;;;;;;;;;;;21.60;49.40;;;;;;5078040;28;1037;-38
2022/03/11 10:25:25;;;;;;;;;;;21.60;49.20;;;;;;5079165;28;1000;-40
2022/03/11 10:27:58;;;;;;;;;;;21.70;49.40;;;;;;5078225;28;932;-38
2022/03/11 10:30:27;;;;;;;;;;;21.70;49.30;;;;;;5079505;28;1898;-39
2022/03/11 10:32:54;;;;;;;;;;;21.70;49.30;;;;;;5078281;28;1114;-40
2022/03/11 10:35:21;;;;;;;;;;;21.70;49.20;;;;;;5079288;28;911;-39
2022/03/11 10:37:57;;;;;;;;;;;21.70;49.40;;;;;;5078287;28;992;-38
2022/03/11 10:40:24;;;;;;;;;;;21.70;49.20;;;;;;5078393;28;987;-43
2022/03/11 10:42:51;;;;;;;;;;;21.70;49.20;;;;;;5077497;28;1052;-38
2022/03/11 10:45:18;;;;;;;;;;;21.70;49.10;;;;;;5079393;28;948;-39
2022/03/11 10:47:46;;;;;;;;;;;21.70;49.20;;;;;;5077649;28;1096;-42
2022/03/11 10:50:15;;;;;;;;;;;21.70;49.20;;;;;;5078655;28;1901;-38
2022/03/11 10:52:44;;;;;;;;;;;21.70;49.10;;;;;;5077080;28;1023;-38
2022/03/11 10:55:18;;;;;;;;;;;21.70;49.20;;;;;;5077301;28;966;-38
2022/03/11 10:57:45;;;;;;;;;;;21.60;49.10;;;;;;5077612;28;1007;-38
2022/03/11 11:00:19;;;;;;;;;;;21.60;49.10;;;;;;5077011;28;1026;-40
2022/03/11 11:02:48;;;;;;;;;;;21.70;49.20;;;;;;5077265;28;996;-39
2022/03/11 11:05:15;;;;;;;;;;;21.70;49.00;;;;;;5077402;28;988;-39
2022/03/11 11:07:42;;;;;;;;;;;21.70;49.20;;;;;;5077933;28;1016;-38
2022/03/11 11:10:09;;;;;;;;;;;21.60;49.10;;;;;;5077766;28;1984;-41
2022/03/11 11:12:37;;;;;;;;;;;21.60;49.20;;;;;;5078918;28;995;-39
2022/03/11 11:15:04;;;;;;;;;;;21.70;49.20;;;;;;5079084;28;1045;-39
2022/03/11 11:17:32;;;;;;;;;;;21.70;49.20;;;;;;5077892;28;889;-40
2022/03/11 11:20:02;;;;;;;;;;;21.60;49.20;;;;;;5078144;28;1066;-40
2022/03/11 11:22:29;;;;;;;;;;;21.70;49.10;;;;;;5078111;28;992;-40
2022/03/11 11:24:56;;;;;;;;;;;21.60;49.30;;;;;;5078049;28;1024;-39
2022/03/11 11:27:24;;;;;;;;;;;21.60;49.20;;;;;;5078260;28;1033;-40
2022/03/11 11:29:51;;;;;;;;;;;21.60;49.20;;;;;;5078389;28;1905;-39
2022/03/11 11:32:18;;;;;;;;;;;21.70;49.10;;;;;;5077402;28;1734;-41
2022/03/11 11:34:46;;;;;;;;;;;21.70;49.00;;;;;;5078592;28;936;-39
2022/03/11 11:37:27;;;;;;;;;;;21.70;49.00;;;;;;5077975;28;955;-39
2022/03/11 11:39:57;;;;;;;;;;;21.70;49.10;;;;;;5079404;28;2224;-44
2022/03/11 11:42:23;;;;;;;;;;;21.70;49.10;;;;;;5078704;28;1032;-43
2022/03/11 11:44:50;;;;;;;;;;;21.60;49.00;;;;;;5077868;28;1453;-46
2022/03/11 11:47:20;;;;;;;;;;;21.70;49.10;;;;;;5075275;28;1095;-42
2022/03/11 11:49:47;;;;;;;;;;;21.60;48.90;;;;;;5077470;28;1894;-42
2022/03/11 11:52:33;;;;;;;;;;;21.70;49.10;;;;;;5076794;28;948;-43
2022/03/11 11:55:14;;;;;;;;;;;21.70;48.90;;;;;;5076311;28;1005;-43
2022/03/11 11:57:42;;;;;;;;;;;21.70;48.90;;;;;;5076912;28;1031;-44
2022/03/11 12:00:30;;;;;;;;;;;21.70;49.00;;;;;;5075795;28;907;-43
2022/03/11 12:02:58;;;;;;;;;;;21.70;49.10;;;;;;5075018;28;1579;-43
2022/03/11 12:05:42;;;;;;;;;;;21.70;49.10;;;;;;5074617;28;1004;-43
2022/03/11 12:08:09;;;;;;;;;;;21.60;48.90;;;;;;5075875;28;940;-43
2022/03/11 12:10:49;;;;;;;;;;;21.70;49.00;;;;;;5074772;28;1910;-43
2022/03/11 12:13:31;;;;;;;;;;;21.60;48.90;;;;;;5075986;28;1011;-44
2022/03/11 12:15:58;;;;;;;;;;;21.60;48.90;;;;;;5073738;28;981;-42
2022/03/11 12:18:44;;;;;;;;;;;21.70;49.10;;;;;;5077152;28;1022;-43
2022/03/11 12:21:22;;;;;;;;;;;21.60;49.00;;;;;;5076042;28;939;-43
2022/03/11 12:23:49;;;;;;;;;;;21.70;49.30;;;;;;5074948;28;997;-42
2022/03/11 12:26:18;;;;;;;;;;;21.60;49.00;;;;;;5075869;28;985;-42
2022/03/11 12:28:45;;;;;;;;;;;21.70;49.00;;;;;;5075994;28;1044;-43
2022/03/11 12:31:13;;;;;;;;;;;21.60;49.10;;;;;;5075151;28;1910;-44
2022/03/11 12:33:41;;;;;;;;;;;21.60;49.00;;;;;;5075199;28;1107;-43
2022/03/11 12:36:08;;;;;;;;;;;21.70;49.20;;;;;;5075163;28;1003;-43
2022/03/11 12:38:37;;;;;;;;;;;21.70;49.10;;;;;;5076170;28;921;-44
2022/03/11 12:41:06;;;;;;;;;;;21.70;49.10;;;;;;5074583;28;936;-44
2022/03/11 12:43:34;;;;;;;;;;;21.70;48.90;;;;;;5076372;28;916;-44
2022/03/11 12:46:01;;;;;;;;;;;21.70;49.10;;;;;;5075757;28;985;-43
2022/03/11 12:48:29;;;;;;;;;;;21.70;49.10;;;;;;5074593;28;1076;-46
2022/03/11 12:50:56;;;;;;;;;;;21.70;49.20;;;;;;5075656;28;1902;-42
2022/03/11 12:53:23;;;;;;;;;;;21.70;49.20;;;;;;5074677;28;988;-43
2022/03/11 12:55:51;;;;;;;;;;;21.70;49.20;;;;;;5075787;28;1695;-46
2022/03/11 12:58:20;;;;;;;;;;;21.70;48.90;;;;;;5076090;28;1043;-42
2022/03/11 13:00:48;;;;;;;;;;;21.70;49.20;;;;;;5073109;28;1117;-44
2022/03/11 13:03:16;;;;;;;;;;;21.60;49.10;;;;;;5072787;28;940;-43
2022/03/11 13:05:44;;;;;;;;;;;21.70;49.20;;;;;;5072850;28;1005;-43
2022/03/11 13:08:15;;;;;;;;;;;21.60;49.10;;;;;;5073469;28;1113;-43
2022/03/11 13:10:43;;;;;;;;;;;21.70;48.80;;;;;;5073653;28;1973;-42
2022/03/11 13:13:11;;;;;;;;;;;21.70;49.10;;;;;;5074547;28;921;-42
2022/03/11 13:15:38;;;;;;;;;;;21.70;49.10;;;;;;5075412;28;1022;-43
2022/03/11 13:18:08;;;;;;;;;;;21.70;49.20;;;;;;5073760;28;869;-42
2022/03/11 13:20:37;;;;;;;;;;;21.70;48.90;;;;;;5074547;28;955;-43
2022/03/11 13:23:11;;;;;;;;;;;21.70;49.20;;;;;;5073332;28;925;-44
2022/03/11 13:25:40;;;;;;;;;;;21.70;49.10;;;;;;5073208;28;916;-43
2022/03/11 13:28:07;;;;;;;;;;;21.70;49.00;;;;;;5073627;28;866;-42
2022/03/11 13:30:35;;;;;;;;;;;21.70;49.00;;;;;;5072479;28;1904;-43
2022/03/11 13:33:14;;;;;;;;;;;21.70;49.10;;;;;;5094343;28;1034;-43
2022/03/11 13:35:41;;;;;;;;;;;21.60;49.10;;;;;;5095197;28;1418;-43
2022/03/11 13:38:08;;;;;;;;;;;21.60;49.00;;;;;;5094219;28;865;-43
2022/03/11 13:40:35;;;;;;;;;;;21.60;48.90;;;;;;5094415;28;895;-42
2022/03/11 13:43:02;;;;;;;;;;;21.70;49.10;;;;;;5079547;28;1537;-42
2022/03/11 13:45:29;;;;;;;;;;;21.70;48.90;;;;;;5072637;28;1129;-42
2022/03/11 13:48:02;;;;;;;;;;;21.70;48.90;;;;;;5072878;28;1225;-43
2022/03/11 13:50:30;;;;;;;;;;;21.70;49.10;;;;;;5074857;28;1976;-46
2022/03/11 13:52:58;;;;;;;;;;;21.70;49.00;;;;;;5074183;28;993;-42
2022/03/11 13:55:35;;;;;;;;;;;21.70;48.90;;;;;;5073805;28;943;-43
2022/03/11 13:58:18;;;;;;;;;;;21.70;48.80;;;;;;5072737;28;991;-43
2022/03/11 14:00:45;;;;;;;;;;;21.70;49.00;;;;;;5072408;28;1111;-43
2022/03/11 14:03:18;;;;;;;;;;;21.70;48.70;;;;;;5071372;28;929;-43
2022/03/11 14:05:46;;;;;;;;;;;21.70;48.70;;;;;;5072672;28;1014;-43
2022/03/11 14:08:21;;;;;;;;;;;21.70;48.70;;;;;;5071326;28;1000;-43
2022/03/11 14:10:48;;;;;;;;;;;21.70;48.70;;;;;;5075272;28;1902;-43
2022/03/11 14:13:15;;;;;;;;;;;21.80;48.80;;;;;;5074990;28;865;-43
2022/03/11 14:15:44;;;;;;;;;;;21.80;48.80;;;;;;5091635;28;1461;-43
2022/03/11 14:18:13;;;;;;;;;;;21.80;49.80;;;;;;5092569;28;1019;-43
2022/03/11 14:20:40;;;;;;;;;;;21.80;48.60;;;;;;5093028;28;976;-42
2022/03/11 14:23:08;;;;;;;;;;;21.80;48.60;;;;;;5091429;28;1008;-42
2022/03/11 14:25:35;;;;;;;;;;;21.80;48.50;;;;;;5095163;28;995;-46
2022/03/11 14:28:02;;;;;;;;;;;21.90;48.50;;;;;;5073668;28;975;-43
2022/03/11 14:30:28;;;;;;;;;;;21.90;48.50;;;;;;5094620;28;1025;-43
2022/03/11 14:32:55;;;;;;;;;;;21.80;48.60;;;;;;5096101;28;1886;-43
2022/03/11 14:35:22;;;;;;;;;;;21.90;48.60;;;;;;5095718;28;1070;-43
2022/03/11 14:37:49;;;;;;;;;;;21.90;48.60;;;;;;5094094;28;960;-42
2022/03/11 14:40:17;;;;;;;;;;;21.90;48.50;;;;;;5094451;28;1014;-43